Time;durP1;ratioP1;P1;durP2;ratioP2;P2;SDS_P1;SDS_P2;PMS_P1;PMS_P2;Temp;Humidity;BMP_temperature;BMP_pressure;BME280_temperature;BME280_humidity;BME280_pressure;Samples;Min_cycle;Max_cycle;Signal;HPM_P1;HPM_P2
2024/03/06 00:01:31;;;;;;;76.47;46.15;;;;;;;6.45;88.10;98954.59;5031949;28;20396;-79
2024/03/06 00:03:57;;;;;;;83.78;48.08;;;;;;;6.49;88.45;98959.25;5052318;28;20040;-79
2024/03/06 00:06:24;;;;;;;89.05;47.30;;;;;;;6.43;87.74;98954.00;5018398;28;20116;-79
2024/03/06 00:08:50;;;;;;;87.63;50.80;;;;;;;6.38;88.25;98956.50;5043619;28;20481;-82
2024/03/06 00:11:15;;;;;;;81.05;48.38;;;;;;;6.42;88.18;98970.97;5045272;28;20102;-79
2024/03/06 00:13:40;;;;;;;86.57;48.17;;;;;;;6.46;87.28;98965.00;5026917;28;20025;-80
2024/03/06 00:16:06;;;;;;;79.95;46.60;;;;;;;6.52;88.26;98976.56;5039690;28;20037;-79
2024/03/06 00:18:31;;;;;;;83.00;46.75;;;;;;;6.53;88.35;98975.56;5042069;28;20573;-78
2024/03/06 00:20:56;;;;;;;95.20;48.85;;;;;;;6.39;88.80;98971.38;5024247;28;20397;-78
2024/03/06 00:23:22;;;;;;;82.63;47.55;;;;;;;6.44;88.37;98968.91;5027864;28;20037;-79
2024/03/06 00:25:47;;;;;;;84.40;47.90;;;;;;;6.22;88.58;98973.78;5031482;28;20120;-80
2024/03/06 00:28:12;;;;;;;84.68;48.35;;;;;;;6.26;88.46;98977.63;5035451;28;20044;-80
2024/03/06 00:30:38;;;;;;;84.78;44.50;;;;;;;6.21;87.98;98984.59;5034941;28;20480;-80
2024/03/06 00:33:03;;;;;;;90.32;47.17;;;;;;;6.31;88.75;98987.59;5030178;28;20436;-78
2024/03/06 00:35:29;;;;;;;86.10;47.35;;;;;;;6.25;88.82;98986.59;5047578;28;20053;-78
2024/03/06 00:37:54;;;;;;;82.60;45.38;;;;;;;6.43;88.46;98977.88;5051155;28;20032;-79
2024/03/06 00:40:20;;;;;;;85.28;46.80;;;;;;;6.24;89.53;98984.16;5054197;28;20054;-79
2024/03/06 00:42:45;;;;;;;80.00;46.28;;;;;;;6.26;89.34;98993.53;5052779;28;20041;-79
2024/03/06 00:45:11;;;;;;;84.95;46.58;;;;;;;5.88;90.27;98990.97;5051855;28;20044;-79
2024/03/06 00:47:37;;;;;;;79.85;46.22;;;;;;;5.62;92.64;98995.59;5057971;28;20052;-77
2024/03/06 00:50:02;;;;;;;96.93;53.05;;;;;;;5.94;91.34;98986.66;5050496;28;20040;-77
2024/03/06 00:52:28;;;;;;;98.75;50.35;;;;;;;6.26;89.04;98996.19;5054000;28;20047;-77
2024/03/06 00:54:53;;;;;;;85.13;46.70;;;;;;;6.35;88.53;98997.53;5130242;22;20049;-79
2024/03/06 00:57:19;;;;;;;80.55;45.53;;;;;;;6.15;88.23;98996.88;5050954;28;20032;-78
2024/03/06 00:59:44;;;;;;;86.28;49.42;;;;;;;6.27;89.23;99004.94;5067330;28;20032;-78
2024/03/06 01:02:09;;;;;;;87.22;49.50;;;;;;;6.41;88.71;99007.25;5061344;28;20037;-78
2024/03/06 01:04:35;;;;;;;85.80;46.05;;;;;;;6.36;88.27;99006.28;5067701;28;20035;-77
2024/03/06 01:07:00;;;;;;;75.35;42.67;;;;;;;6.36;88.19;99001.78;5068782;28;20721;-80
2024/03/06 01:09:27;;;;;;;82.55;47.50;;;;;;;6.43;87.44;98994.59;5048073;28;20024;-81
2024/03/06 01:11:52;;;;;;;77.90;44.53;;;;;;;6.45;87.62;99003.13;5065672;28;20500;-78
2024/03/06 01:14:18;;;;;;;80.47;45.20;;;;;;;5.85;88.08;99004.63;5032434;28;20060;-78
2024/03/06 01:16:43;;;;;;;89.43;46.40;;;;;;;5.91;89.96;99000.31;5065367;28;20167;-78
2024/03/06 01:19:09;;;;;;;87.53;46.83;;;;;;;6.26;89.00;99013.91;5066105;28;20386;-78
2024/03/06 01:21:34;;;;;;;84.90;44.83;;;;;;;6.18;88.25;99016.84;5063362;28;20377;-78
2024/03/06 01:24:00;;;;;;;86.40;44.22;;;;;;;6.07;88.38;99019.16;5062559;28;20682;-78
2024/03/06 01:26:26;;;;;;;91.15;49.70;;;;;;;6.41;88.05;99020.53;5067331;28;20097;-78
2024/03/06 01:28:51;;;;;;;84.13;44.88;;;;;;;6.03;87.54;99007.34;5068932;28;20469;-77
2024/03/06 01:31:17;;;;;;;80.93;46.38;;;;;;;6.42;87.79;99008.88;5070282;28;20034;-78
2024/03/06 01:33:42;;;;;;;85.25;45.83;;;;;;;6.15;87.93;99011.97;5067803;28;20123;-80
2024/03/06 01:36:08;;;;;;;84.63;47.17;;;;;;;6.30;88.00;99007.97;5051715;28;20078;-79
2024/03/06 01:38:33;;;;;;;81.22;44.70;;;;;;;6.20;87.58;99015.59;5054494;28;20095;-78
2024/03/06 01:40:58;;;;;;;83.70;44.63;;;;;;;5.44;90.54;98998.16;5070535;28;20021;-79
2024/03/06 01:43:25;;;;;;;92.93;48.03;;;;;;;5.70;91.06;99006.72;5072176;28;20036;-78
2024/03/06 01:45:55;;;;;;;84.78;47.20;;;;;;;6.35;88.59;99012.63;5067639;28;20024;-76
2024/03/06 01:48:27;;;;;;;83.43;45.67;;;;;;;6.49;87.53;99008.81;5065934;28;20024;-78
2024/03/06 01:50:55;;;;;;;85.82;47.95;;;;;;;6.45;86.96;99015.56;5070491;28;20481;-79
2024/03/06 01:53:20;;;;;;;85.18;47.13;;;;;;;6.27;87.16;98999.66;5050538;28;20067;-79
2024/03/06 01:55:48;;;;;;;82.03;45.67;;;;;;;6.46;87.82;99027.81;5046666;28;20048;-78
2024/03/06 01:58:13;;;;;;;80.68;43.85;;;;;;;6.45;86.67;99031.50;5071360;28;20086;-78
2024/03/06 02:00:39;;;;;;;77.32;45.03;;;;;;;6.24;87.84;99026.56;5066367;28;20032;-79
2024/03/06 02:03:05;;;;;;;81.22;45.30;;;;;;;6.26;87.34;99029.81;5052664;28;20032;-78
2024/03/06 02:05:32;;;;;;;86.93;45.30;;;;;;;5.69;89.01;99028.97;5072105;28;20033;-78
2024/03/06 02:08:02;;;;;;;90.35;46.58;;;;;;;5.06;91.32;99012.16;5073833;28;20123;-78
2024/03/06 02:10:28;;;;;;;87.57;46.03;;;;;;;5.32;92.57;99025.28;5069458;28;20030;-78
2024/03/06 02:12:54;;;;;;;83.03;45.42;;;;;;;5.90;90.48;99007.47;5072229;28;20027;-79
2024/03/06 02:15:20;;;;;;;85.13;46.78;;;;;;;6.00;89.88;99026.34;5053755;28;20104;-79
2024/03/06 02:17:46;;;;;;;81.93;47.33;;;;;;;6.05;88.61;99020.38;5054620;28;20162;-79
2024/03/06 02:20:14;;;;;;;81.40;45.53;;;;;;;6.25;88.85;99029.00;5036906;28;20029;-79
2024/03/06 02:22:40;;;;;;;83.78;44.97;;;;;;;6.15;87.90;99019.91;5069458;28;20024;-79
2024/03/06 02:25:06;;;;;;;88.85;48.17;;;;;;;6.03;88.76;99031.22;5055425;28;20066;-78
2024/03/06 02:27:32;;;;;;;86.75;46.53;;;;;;;6.12;88.25;99039.69;5071209;28;20400;-79
2024/03/06 02:29:57;;;;;;;86.80;46.72;;;;;;;6.25;88.13;99044.09;5073751;28;20073;-79
2024/03/06 02:32:24;;;;;;;81.50;45.63;;;;;;;6.10;88.03;99040.94;5071811;28;20028;-79
2024/03/06 02:34:49;;;;;;;86.55;46.40;;;;;;;6.23;87.34;99035.53;5071469;28;20108;-79
2024/03/06 02:37:15;;;;;;;83.70;46.58;;;;;;;6.22;87.48;99033.94;5022537;28;20165;-79
2024/03/06 02:39:40;;;;;;;83.80;45.80;;;;;;;6.13;87.40;99030.75;5071649;28;20032;-78
2024/03/06 02:42:06;;;;;;;85.18;46.15;;;;;;;6.01;87.21;99040.38;5072202;28;20514;-79
2024/03/06 02:44:33;;;;;;;77.20;44.72;;;;;;;5.99;88.26;99045.91;5069978;28;20107;-79
2024/03/06 02:46:58;;;;;;;85.05;44.15;;;;;;;6.07;88.51;99049.34;5075767;28;20031;-79
2024/03/06 02:49:24;;;;;;;86.80;45.95;;;;;;;6.16;87.83;99045.41;5074538;28;20167;-79
2024/03/06 02:51:50;;;;;;;85.70;46.28;;;;;;;5.89;88.04;99042.94;5071111;28;21870;-78
2024/03/06 02:54:15;;;;;;;87.18;46.70;;;;;;;5.88;88.42;99046.59;5051436;28;20032;-78
2024/03/06 02:56:41;;;;;;;92.22;47.97;;;;;;;5.87;88.88;99041.53;5037736;28;20039;-78
2024/03/06 02:59:06;;;;;;;86.70;46.22;;;;;;;5.33;88.51;99034.00;5045740;28;20036;-79
2024/03/06 03:01:31;;;;;;;86.72;47.03;;;;;;;5.69;89.23;99050.13;5060595;28;20033;-78
2024/03/06 03:03:57;;;;;;;79.65;46.95;;;;;;;6.07;87.93;99047.50;5065573;28;20063;-76
2024/03/06 03:06:23;;;;;;;86.20;46.78;;;;;;;6.05;88.26;99050.34;5064372;28;20044;-78
2024/03/06 03:08:49;;;;;;;83.43;43.97;;;;;;;5.76;87.80;99050.09;5065050;28;20516;-77
2024/03/06 03:11:15;;;;;;;85.60;47.20;;;;;;;5.85;88.09;99054.16;5070171;28;20182;-78
2024/03/06 03:13:41;;;;;;;85.80;46.85;;;;;;;5.55;90.06;99043.28;5063483;28;20107;-77
2024/03/06 03:16:06;;;;;;;89.50;46.30;;;;;;;5.37;90.00;99050.31;5047331;28;20115;-78
2024/03/06 03:18:32;;;;;;;89.68;48.63;;;;;;;5.18;90.23;99051.97;5063254;28;20035;-77
2024/03/06 03:20:57;;;;;;;85.22;48.13;;;;;;;5.71;89.27;99052.56;5067816;28;20028;-77
2024/03/06 03:23:23;;;;;;;90.85;44.47;;;;;;;5.77;89.02;99067.59;5063192;28;20032;-78
2024/03/06 03:25:49;;;;;;;86.47;48.08;;;;;;;5.94;87.99;99048.38;5061245;28;20090;-78
2024/03/06 03:28:15;;;;;;;86.05;48.05;;;;;;;5.84;88.51;99069.22;5047623;28;20389;-78
2024/03/06 03:30:44;;;;;;;86.55;46.97;;;;;;;6.04;88.48;99074.41;5067769;28;20040;-79
2024/03/06 03:33:09;;;;;;;85.60;45.63;;;;;;;6.04;87.34;99072.59;5051312;28;20107;-78
2024/03/06 03:35:34;;;;;;;87.93;46.75;;;;;;;5.84;87.80;99068.41;5044430;28;20114;-79
2024/03/06 03:38:00;;;;;;;84.30;45.60;;;;;;;5.54;89.83;99080.56;5066649;28;20037;-78
2024/03/06 03:40:25;;;;;;;93.65;48.53;;;;;;;5.59;88.73;99068.31;5068446;28;20020;-79
2024/03/06 03:42:50;;;;;;;85.72;45.58;;;;;;;5.25;89.41;99080.06;5067520;28;20101;-79
2024/03/06 03:45:16;;;;;;;90.47;49.15;;;;;;;5.74;89.72;99073.34;5058828;28;20559;-79
2024/03/06 03:47:42;;;;;;;87.80;46.22;;;;;;;6.12;88.19;99082.09;5050881;28;20032;-79
2024/03/06 03:50:08;;;;;;;85.85;45.90;;;;;;;5.74;87.45;99073.34;5065451;28;20950;-79
2024/03/06 03:52:34;;;;;;;91.13;48.03;;;;;;;6.03;88.23;99078.06;5067389;28;20744;-78
2024/03/06 03:54:59;;;;;;;91.22;48.22;;;;;;;6.18;87.48;99075.16;5064330;28;20029;-79
2024/03/06 03:57:25;;;;;;;83.95;46.22;;;;;;;6.14;86.63;99076.59;5070879;28;20086;-79
2024/03/06 03:59:51;;;;;;;86.05;47.53;;;;;;;5.65;87.73;99078.06;5068554;28;20040;-78
2024/03/06 04:02:16;;;;;;;85.93;48.08;;;;;;;5.77;88.36;99086.97;5067752;28;20032;-78
2024/03/06 04:04:42;;;;;;;86.50;47.13;;;;;;;5.98;88.87;99085.88;5051493;28;20677;-79
2024/03/06 04:07:07;;;;;;;81.72;47.13;;;;;;;5.79;88.90;99086.75;5066435;28;20425;-78
2024/03/06 04:09:35;;;;;;;89.53;48.20;;;;;;;5.73;88.00;99088.41;5067266;28;20082;-78
2024/03/06 04:12:02;;;;;;;100.18;50.65;;;;;;;4.95;89.69;99093.97;5064218;28;20106;-78
2024/03/06 04:14:27;;;;;;;91.85;49.72;;;;;;;5.61;89.54;99103.34;5062981;28;20025;-78
2024/03/06 04:16:52;;;;;;;87.78;47.80;;;;;;;5.73;89.42;99090.25;5063654;28;20465;-78
2024/03/06 04:19:18;;;;;;;97.97;50.47;;;;;;;5.26;89.33;99097.53;5068580;28;20075;-78
2024/03/06 04:21:44;;;;;;;93.30;47.42;;;;;;;5.60;89.07;99088.47;5066237;28;20389;-79
2024/03/06 04:24:10;;;;;;;93.68;51.45;;;;;;;5.87;88.66;99097.13;5067703;28;20039;-79
2024/03/06 04:26:35;;;;;;;90.72;47.97;;;;;;;6.10;87.55;99096.59;5069712;28;20033;-78
2024/03/06 04:29:01;;;;;;;80.03;43.70;;;;;;;6.23;86.79;99107.09;5069292;28;20571;-80
2024/03/06 04:31:26;;;;;;;82.97;46.92;;;;;;;6.07;86.83;99093.34;5034216;28;20078;-79
2024/03/06 04:33:51;;;;;;;80.13;45.70;;;;;;;5.98;87.33;99107.84;5051139;28;20059;-78
2024/03/06 04:36:17;;;;;;;87.57;47.35;;;;;;;5.94;86.08;99108.53;5068177;28;20031;-79
2024/03/06 04:38:42;;;;;;;85.50;45.05;;;;;;;5.96;87.06;99109.13;5068448;28;20131;-80
2024/03/06 04:41:08;;;;;;;79.13;44.15;;;;;;;5.84;88.00;99110.78;5069011;28;20052;-79
2024/03/06 04:43:33;;;;;;;90.88;46.92;;;;;;;5.24;88.08;99104.09;5069610;28;20047;-79
2024/03/06 04:45:59;;;;;;;87.85;46.85;;;;;;;5.36;89.67;99115.66;5050416;28;20033;-80
2024/03/06 04:48:24;;;;;;;93.10;47.10;;;;;;;5.67;89.20;99115.75;5072930;28;20043;-80
2024/03/06 04:50:49;;;;;;;83.10;47.53;;;;;;;5.10;89.24;99129.75;5066221;28;20450;-80
2024/03/06 04:53:15;;;;;;;91.28;50.92;;;;;;;5.40;88.97;99123.97;5068754;28;20749;-78
2024/03/06 04:55:41;;;;;;;86.85;47.08;;;;;;;5.51;89.57;99120.69;5068846;28;20032;-81
2024/03/06 04:58:06;;;;;;;95.95;49.40;;;;;;;5.05;89.50;99131.38;5067978;28;20024;-79
2024/03/06 05:00:32;;;;;;;88.43;48.88;;;;;;;5.27;88.91;99130.94;5065190;28;20088;-77
2024/03/06 05:02:57;;;;;;;90.82;49.08;;;;;;;5.85;88.37;99136.28;5068502;28;20500;-77
2024/03/06 05:05:23;;;;;;;85.53;46.25;;;;;;;6.02;87.28;99130.28;5049302;28;20086;-77
2024/03/06 05:07:48;;;;;;;85.90;45.60;;;;;;;5.46;87.39;99134.53;5064685;28;20034;-78
2024/03/06 05:10:15;;;;;;;82.38;47.03;;;;;;;5.79;89.46;99139.72;5061799;28;20033;-77
2024/03/06 05:12:41;;;;;;;92.32;45.92;;;;;;;5.44;87.94;99136.56;5064127;28;20043;-77
2024/03/06 05:15:08;;;;;;;92.32;47.78;;;;;;;5.57;88.25;99141.84;5055892;28;20115;-77
2024/03/06 05:17:33;;;;;;;90.05;47.67;;;;;;;4.90;89.46;99139.53;5065477;28;20042;-77
2024/03/06 05:19:59;;;;;;;87.72;45.67;;;;;;;5.08;89.93;99146.84;5069578;28;20032;-78
2024/03/06 05:22:26;;;;;;;86.22;48.28;;;;;;;4.89;91.04;99137.13;5048990;28;20094;-77
2024/03/06 05:24:52;;;;;;;88.20;45.30;;;;;;;4.36;90.27;99155.59;5043689;28;20082;-77
2024/03/06 05:27:18;;;;;;;89.00;47.60;;;;;;;5.27;91.40;99146.81;5044661;28;20033;-77
2024/03/06 05:29:44;;;;;;;88.13;46.33;;;;;;;5.38;89.84;99150.66;5065038;28;20078;-77
2024/03/06 05:32:09;;;;;;;90.65;47.95;;;;;;;5.02;88.57;99150.31;5068070;28;20175;-77
2024/03/06 05:34:35;;;;;;;85.00;46.13;;;;;;;4.86;89.58;99150.72;5068779;28;20107;-77
2024/03/06 05:37:03;;;;;;;78.25;44.35;;;;;;;5.71;88.46;99161.13;5062431;28;20024;-77
2024/03/06 05:39:29;;;;;;;78.40;44.00;;;;;;;5.78;88.12;99165.41;5065669;28;20635;-77
2024/03/06 05:41:55;;;;;;;83.70;45.63;;;;;;;5.89;87.06;99170.06;5066224;28;20032;-77
2024/03/06 05:44:20;;;;;;;82.57;44.63;;;;;;;5.69;87.76;99171.13;5071024;28;20078;-77
2024/03/06 05:46:46;;;;;;;82.88;42.28;;;;;;;5.63;87.11;99170.16;5069390;28;20025;-77
2024/03/06 05:49:13;;;;;;;82.93;44.00;;;;;;;5.89;87.74;99171.91;5067175;28;20045;-77
2024/03/06 05:51:39;;;;;;;83.32;42.25;;;;;;;5.92;87.38;99180.22;5051967;28;20550;-77
2024/03/06 05:54:06;;;;;;;78.00;42.40;;;;;;;6.10;85.77;99178.72;5067596;28;20021;-77
2024/03/06 05:56:31;;;;;;;85.03;42.47;;;;;;;6.01;86.63;99186.09;5068765;28;20397;-78
2024/03/06 05:58:57;;;;;;;75.53;39.65;;;;;;;5.98;86.92;99189.97;5071128;28;20032;-78
2024/03/06 06:01:22;;;;;;;74.93;41.17;;;;;;;5.99;86.35;99193.44;5079429;28;20047;-79
2024/03/06 06:03:48;;;;;;;70.03;40.97;;;;;;;5.97;86.61;99198.16;5054048;28;20029;-80
2024/03/06 06:06:20;;;;;;;73.22;40.72;;;;;;;5.89;86.67;99207.16;5073238;28;20032;-77
2024/03/06 06:08:45;;;;;;;72.30;37.95;;;;;;;5.78;87.59;99197.19;5059645;28;20492;-82
2024/03/06 06:11:32;;;;;;;71.07;39.30;;;;;;;5.94;86.50;99196.72;5081923;28;20115;-77
2024/03/06 06:14:00;;;;;;;72.28;40.83;;;;;;;5.88;86.51;99205.53;5071660;28;20021;-77
2024/03/06 06:16:44;;;;;;;64.78;37.85;;;;;;;5.86;86.78;99199.63;5073041;28;20086;-77
2024/03/06 06:19:09;;;;;;;68.28;39.35;;;;;;;5.92;86.62;99208.56;5068886;28;20024;-78
2024/03/06 06:21:35;;;;;;;66.28;37.83;;;;;;;5.42;86.86;99207.44;5050150;28;20033;-77
2024/03/06 06:24:30;;;;;;;71.55;39.47;;;;;;;5.87;87.06;99211.03;5069183;28;20039;-76
2024/03/06 06:26:56;;;;;;;71.70;40.28;;;;;;;5.13;87.56;99221.13;5075056;28;20064;-75
2024/03/06 06:29:21;;;;;;;80.20;40.78;;;;;;;5.22;89.67;99204.03;5066594;28;20103;-80
2024/03/06 06:31:46;;;;;;;69.65;39.65;;;;;;;5.73;88.63;99212.06;5054224;28;20098;-79
2024/03/06 06:34:12;;;;;;;77.10;40.55;;;;;;;4.92;88.02;99223.97;5073679;28;20024;-75
2024/03/06 06:36:37;;;;;;;71.38;38.35;;;;;;;5.51;88.50;99218.63;5072194;28;20032;-76
2024/03/06 06:39:05;;;;;;;72.38;40.42;;;;;;;5.13;89.54;99229.06;5075915;28;20487;-77
2024/03/06 06:41:31;;;;;;;69.63;38.47;;;;;;;5.47;88.94;99218.22;5057480;28;20036;-77
2024/03/06 06:43:56;;;;;;;74.43;39.97;;;;;;;5.92;87.53;99232.41;5056609;28;20040;-77
2024/03/06 06:46:22;;;;;;;71.32;38.67;;;;;;;5.92;86.54;99241.16;5071672;28;20051;-76
2024/03/06 06:48:48;;;;;;;68.32;38.20;;;;;;;5.82;86.58;99250.53;5055474;28;20036;-76
2024/03/06 06:51:14;;;;;;;75.30;37.10;;;;;;;5.26;87.29;99258.16;5071980;28;20036;-76
2024/03/06 06:53:41;;;;;;;68.78;38.95;;;;;;;5.05;89.97;99247.78;5066497;28;20609;-76
2024/03/06 06:56:07;;;;;;;64.63;36.03;;;;;;;4.90;89.01;99260.38;5062738;28;20301;-76
2024/03/06 06:58:33;;;;;;;68.80;38.30;;;;;;;4.82;90.20;99258.75;5047987;28;20035;-77
2024/03/06 07:00:58;;;;;;;70.63;39.35;;;;;;;5.08;89.78;99268.53;5068379;28;20025;-75
2024/03/06 07:03:29;;;;;;;79.45;38.92;;;;;;;4.87;90.54;99271.38;5070433;28;20550;-75
2024/03/06 07:05:55;;;;;;;69.15;36.75;;;;;;;4.99;90.25;99273.22;5072323;28;20427;-76
2024/03/06 07:08:20;;;;;;;75.85;37.78;;;;;;;4.72;90.60;99260.97;5071181;28;20039;-76
2024/03/06 07:10:46;;;;;;;68.38;36.20;;;;;;;5.04;90.16;99270.78;5069092;28;20029;-76
2024/03/06 07:13:11;;;;;;;61.25;35.00;;;;;;;4.61;89.08;99287.97;5050352;28;20036;-77
2024/03/06 07:15:37;;;;;;;71.43;36.05;;;;;;;4.87;90.75;99293.31;5075267;28;20039;-76
2024/03/06 07:18:02;;;;;;;72.78;39.67;;;;;;;5.19;90.02;99291.75;5071456;28;20048;-78
2024/03/06 07:20:28;;;;;;;67.18;34.53;;;;;;;5.09;87.41;99297.44;5070977;28;20028;-76
2024/03/06 07:22:54;;;;;;;65.28;37.85;;;;;;;4.70;89.90;99272.75;5071286;28;20024;-76
2024/03/06 07:25:20;;;;;;;60.80;34.35;;;;;;;5.21;89.35;99295.00;5072266;28;20035;-76
2024/03/06 07:27:45;;;;;;;60.22;32.33;;;;;;;4.69;88.21;99305.50;5072388;28;20063;-76
2024/03/06 07:30:11;;;;;;;65.07;35.20;;;;;;;4.53;90.36;99307.50;5071985;28;20568;-76
2024/03/06 07:32:37;;;;;;;63.58;35.63;;;;;;;4.90;90.34;99310.63;5072001;28;20401;-76
2024/03/06 07:35:02;;;;;;;62.42;34.83;;;;;;;5.14;89.62;99310.88;5069446;28;20056;-76
2024/03/06 07:37:27;;;;;;;62.95;33.80;;;;;;;4.75;87.36;99312.63;5061320;28;20098;-76
2024/03/06 07:39:53;;;;;;;65.20;34.70;;;;;;;5.02;89.76;99312.47;5047999;28;20553;-76
2024/03/06 07:42:18;;;;;;;59.85;34.13;;;;;;;5.18;89.82;99327.16;5069428;28;20027;-76
2024/03/06 07:44:43;;;;;;;52.88;32.15;;;;;;;5.02;87.64;99316.97;5061096;28;20033;-76
2024/03/06 07:47:09;;;;;;;55.72;34.65;;;;;;;5.58;89.02;99330.63;5069549;28;20085;-76
2024/03/06 07:49:34;;;;;;;69.63;38.15;;;;;;;5.23;89.06;99335.31;5066620;28;20020;-76
2024/03/06 07:52:00;;;;;;;60.08;35.13;;;;;;;5.26;88.69;99335.69;5065855;28;20032;-76
2024/03/06 07:54:25;;;;;;;62.03;33.60;;;;;;;5.06;88.99;99329.59;5068258;28;20449;-76
2024/03/06 07:56:51;;;;;;;56.15;33.17;;;;;;;5.40;88.76;99330.41;5065658;28;20024;-76
2024/03/06 07:59:18;;;;;;;66.72;35.83;;;;;;;5.34;88.17;99321.47;5076025;28;20476;-76
2024/03/06 08:01:43;;;;;;;62.92;34.85;;;;;;;5.93;87.21;99335.53;5048374;28;20067;-76
2024/03/06 08:04:08;;;;;;;62.78;36.08;;;;;;;5.49;86.90;99335.31;5071118;28;20477;-76
2024/03/06 08:06:37;;;;;;;54.47;33.25;;;;;;;4.86;87.34;99339.31;5071028;28;20055;-75
2024/03/06 08:09:03;;;;;;;61.50;34.08;;;;;;;5.15;88.94;99346.91;5053383;28;20066;-75
2024/03/06 08:11:28;;;;;;;62.00;35.47;;;;;;;5.35;87.77;99351.41;5066798;28;20043;-76
2024/03/06 08:13:58;;;;;;;58.88;33.22;;;;;;;5.36;87.99;99339.78;5063561;28;20397;-76
2024/03/06 08:16:23;;;;;;;60.40;34.08;;;;;;;5.03;86.86;99347.69;5068307;28;20582;-76
2024/03/06 08:18:48;;;;;;;60.13;33.95;;;;;;;5.85;86.75;99351.59;5069146;28;20687;-76
2024/03/06 08:21:14;;;;;;;53.90;34.30;;;;;;;6.07;86.36;99347.69;5068939;28;20051;-76
2024/03/06 08:23:40;;;;;;;58.33;33.25;;;;;;;5.83;86.20;99348.31;5070805;28;20460;-76
2024/03/06 08:26:05;;;;;;;57.55;33.38;;;;;;;5.70;85.50;99353.63;5069438;28;20036;-76
2024/03/06 08:28:30;;;;;;;61.00;34.60;;;;;;;5.82;86.83;99359.13;5066726;28;20528;-76
2024/03/06 08:30:56;;;;;;;55.92;33.90;;;;;;;6.00;85.34;99343.47;5050195;28;20097;-76
2024/03/06 08:33:22;;;;;;;51.80;32.15;;;;;;;5.87;84.76;99343.47;5067918;28;20103;-76
2024/03/06 08:35:48;;;;;;;51.50;31.88;;;;;;;6.04;85.38;99366.69;5063491;28;21033;-76
2024/03/06 08:38:13;;;;;;;54.50;33.28;;;;;;;6.22;84.74;99360.75;5066715;28;20085;-76
2024/03/06 08:40:38;;;;;;;54.22;33.33;;;;;;;6.07;85.01;99366.25;5065058;28;20493;-76
2024/03/06 08:43:04;;;;;;;52.33;33.50;;;;;;;6.14;84.78;99368.09;5062449;28;20163;-76
2024/03/06 08:45:29;;;;;;;60.03;33.97;;;;;;;5.82;85.50;99373.19;5070740;28;20085;-76
2024/03/06 08:47:55;;;;;;;58.90;33.22;;;;;;;6.10;85.75;99372.16;5075944;28;20025;-76
2024/03/06 08:50:20;;;;;;;59.30;34.00;;;;;;;5.45;86.15;99375.63;5072156;28;20032;-76
2024/03/06 08:52:46;;;;;;;65.63;35.05;;;;;;;5.02;86.88;99377.81;5073213;28;20024;-76
2024/03/06 08:55:12;;;;;;;61.83;35.33;;;;;;;5.25;87.11;99381.72;5067791;28;20039;-76
2024/03/06 08:57:38;;;;;;;55.15;34.97;;;;;;;5.33;85.77;99384.16;5068194;28;20032;-76
2024/03/06 09:00:08;;;;;;;64.63;35.58;;;;;;;5.47;86.84;99387.66;5069598;28;20028;-76
2024/03/06 09:02:33;;;;;;;62.25;36.63;;;;;;;5.99;86.51;99390.31;5066978;28;20381;-76
2024/03/06 09:04:59;;;;;;;62.05;34.85;;;;;;;5.64;86.12;99396.00;5066045;28;20032;-76
2024/03/06 09:07:25;;;;;;;60.17;35.10;;;;;;;5.35;85.30;99378.69;5065337;28;20028;-76
2024/03/06 09:09:53;;;;;;;63.47;35.60;;;;;;;5.94;86.59;99392.75;5066830;28;20048;-76
2024/03/06 09:12:19;;;;;;;60.30;34.45;;;;;;;5.57;84.52;99396.00;5068959;28;20104;-76
2024/03/06 09:14:44;;;;;;;59.95;34.03;;;;;;;6.09;85.32;99387.28;5067889;28;20455;-76
2024/03/06 09:17:13;;;;;;;63.80;34.60;;;;;;;6.06;84.54;99387.66;5069879;28;20536;-76
2024/03/06 09:19:38;;;;;;;62.33;32.70;;;;;;;6.31;84.38;99403.75;5067190;28;20047;-76
2024/03/06 09:22:03;;;;;;;59.95;34.13;;;;;;;6.52;83.20;99400.81;5073097;28;20036;-76
2024/03/06 09:24:29;;;;;;;53.40;32.95;;;;;;;6.73;81.82;99406.66;5054918;28;20455;-76
2024/03/06 09:26:54;;;;;;;56.75;32.42;;;;;;;6.64;82.30;99407.91;5071330;28;20046;-76
2024/03/06 09:29:20;;;;;;;56.70;33.25;;;;;;;6.54;81.46;99415.50;5072439;28;20481;-76
2024/03/06 09:31:47;;;;;;;58.13;32.17;;;;;;;6.88;80.90;99397.63;5072133;28;20040;-76
2024/03/06 09:34:13;;;;;;;55.30;34.30;;;;;;;6.76;80.80;99398.28;5069624;28;20051;-76
2024/03/06 09:36:40;;;;;;;56.40;30.45;;;;;;;6.56;81.51;99396.72;5068991;28;20029;-76
2024/03/06 09:39:07;;;;;;;63.88;33.50;;;;;;;6.60;81.42;99412.00;5072308;28;20035;-76
2024/03/06 09:41:33;;;;;;;64.15;33.15;;;;;;;6.86;80.47;99412.97;5072009;28;20024;-77
2024/03/06 09:43:59;;;;;;;52.88;32.20;;;;;;;6.64;81.05;99415.06;5069720;28;20378;-76
2024/03/06 09:46:26;;;;;;;50.13;31.85;;;;;;;6.73;80.26;99419.09;5068636;28;20068;-76
2024/03/06 09:48:53;;;;;;;53.45;30.85;;;;;;;6.71;81.36;99424.63;5066432;28;20028;-76
2024/03/06 09:51:20;;;;;;;52.70;31.63;;;;;;;6.62;81.89;99417.09;5069583;28;20060;-76
2024/03/06 09:53:49;;;;;;;51.40;30.33;;;;;;;6.95;80.09;99419.63;5066192;28;20078;-76
2024/03/06 09:56:15;;;;;;;48.10;29.70;;;;;;;6.35;78.38;99431.47;5068220;28;20032;-76
2024/03/06 09:58:41;;;;;;;50.78;31.85;;;;;;;5.95;79.35;99436.81;5064211;28;20029;-76
2024/03/06 10:01:07;;;;;;;51.05;31.45;;;;;;;6.23;79.73;99446.34;5052398;28;21707;-75
2024/03/06 10:03:33;;;;;;;52.08;30.60;;;;;;;5.79;79.73;99445.09;5066292;28;20032;-76
2024/03/06 10:05:59;;;;;;;58.90;32.60;;;;;;;6.19;81.70;99448.59;5074289;28;20036;-76
2024/03/06 10:08:26;;;;;;;55.17;31.55;;;;;;;5.80;80.03;99444.09;5062966;28;20041;-76
2024/03/06 10:10:52;;;;;;;51.83;28.98;;;;;;;5.53;79.68;99446.91;5052791;28;20028;-76
2024/03/06 10:13:17;;;;;;;47.90;30.75;;;;;;;5.43;80.20;99434.06;5072271;28;20024;-76
2024/03/06 10:15:56;;;;;;;51.17;32.25;;;;;;;6.46;82.82;99449.38;5073693;28;20462;-76
2024/03/06 10:18:27;;;;;;;50.72;29.45;;;;;;;6.66;81.81;99435.03;5072060;28;20384;-76
2024/03/06 10:20:53;;;;;;;53.10;29.02;;;;;;;5.94;79.19;99437.81;5064310;28;20070;-76
2024/03/06 10:23:18;;;;;;;57.80;32.35;;;;;;;6.41;80.66;99460.59;5071365;28;20052;-76
2024/03/06 10:25:46;;;;;;;50.75;31.33;;;;;;;5.76;79.57;99453.47;5070792;28;20036;-76
2024/03/06 10:28:12;;;;;;;51.38;30.35;;;;;;;5.90;81.03;99456.97;5070949;28;20035;-76
2024/03/06 10:30:43;;;;;;;55.60;31.23;;;;;;;6.19;80.41;99458.38;5068829;28;20036;-75
2024/03/06 10:33:09;;;;;;;49.72;29.92;;;;;;;6.29;81.35;99469.41;5070273;28;20461;-76
2024/03/06 10:35:39;;;;;;;52.50;31.38;;;;;;;6.28;79.96;99473.06;5071753;28;20036;-76
2024/03/06 10:38:06;;;;;;;49.20;30.17;;;;;;;6.22;78.63;99473.88;5072196;28;20036;-76
2024/03/06 10:40:33;;;;;;;50.63;30.88;;;;;;;6.05;78.97;99471.63;5068537;28;20354;-76
2024/03/06 10:43:00;;;;;;;48.42;28.77;;;;;;;6.20;79.97;99475.94;5066111;28;20024;-76
2024/03/06 10:45:39;;;;;;;48.70;30.75;;;;;;;6.26;78.83;99465.31;5071219;28;20029;-76
2024/03/06 10:48:07;;;;;;;57.45;30.08;;;;;;;6.21;77.86;99473.06;5065501;28;20021;-76
2024/03/06 10:50:32;;;;;;;50.67;30.08;;;;;;;6.33;79.01;99470.63;5065223;28;20036;-76
2024/03/06 10:52:59;;;;;;;56.65;28.30;;;;;;;6.43;77.16;99471.00;5052394;28;20032;-76
2024/03/06 10:55:27;;;;;;;45.03;29.45;;;;;;;6.14;77.54;99471.44;5071598;28;20047;-77
2024/03/06 10:57:56;;;;;;;49.60;29.48;;;;;;;6.26;80.09;99475.09;5076783;28;20031;-76
2024/03/06 11:00:23;;;;;;;56.28;29.45;;;;;;;6.74;79.91;99473.81;5066126;28;20062;-76
2024/03/06 11:02:49;;;;;;;52.80;30.48;;;;;;;6.71;77.50;99468.91;5071318;28;20537;-76
2024/03/06 11:05:15;;;;;;;46.97;30.92;;;;;;;7.01;79.83;99466.56;5079405;28;20024;-76
2024/03/06 11:07:41;;;;;;;44.20;28.83;;;;;;;7.39;79.91;99470.06;5050504;28;20106;-76
2024/03/06 11:10:07;;;;;;;44.08;27.95;;;;;;;7.69;78.49;99470.31;5066879;28;20425;-76
2024/03/06 11:12:41;;;;;;;45.90;29.42;;;;;;;7.62;77.90;99467.69;5060804;28;20551;-76
2024/03/06 11:15:13;;;;;;;53.63;29.48;;;;;;;7.43;76.78;99466.75;5064888;28;20055;-76
2024/03/06 11:17:39;;;;;;;53.88;30.50;;;;;;;7.27;73.63;99459.28;5050806;28;20032;-76
2024/03/06 11:20:06;;;;;;;54.92;30.42;;;;;;;7.16;75.06;99470.59;5051389;28;20537;-76